sensor_id;sensor_type;location;lat;lon;timestamp;P1;durP1;ratioP1;P2;durP2;ratioP2
11988;SDS011;6054;50.966;7.094;2022-08-01T00:00:48;2.75;;;1.88;;
11988;SDS011;6054;50.966;7.094;2022-08-01T00:03:15;1.70;;;1.60;;
11988;SDS011;6054;50.966;7.094;2022-08-01T00:05:42;1.92;;;1.83;;
11988;SDS011;6054;50.966;7.094;2022-08-01T00:08:10;2.97;;;1.55;;
11988;SDS011;6054;50.966;7.094;2022-08-01T00:10:37;1.80;;;1.42;;
11988;SDS011;6054;50.966;7.094;2022-08-01T00:13:03;2.80;;;1.83;;
11988;SDS011;6054;50.966;7.094;2022-08-01T00:15:31;1.92;;;1.50;;
11988;SDS011;6054;50.966;7.094;2022-08-01T00:17:58;1.92;;;1.35;;
11988;SDS011;6054;50.966;7.094;2022-08-01T00:20:26;1.88;;;1.58;;
11988;SDS011;6054;50.966;7.094;2022-08-01T00:22:53;2.30;;;1.55;;
11988;SDS011;6054;50.966;7.094;2022-08-01T00:25:20;1.85;;;1.73;;
11988;SDS011;6054;50.966;7.094;2022-08-01T00:27:46;2.38;;;1.60;;
11988;SDS011;6054;50.966;7.094;2022-08-01T00:30:13;2.85;;;1.30;;
11988;SDS011;6054;50.966;7.094;2022-08-01T00:32:42;2.13;;;1.63;;
11988;SDS011;6054;50.966;7.094;2022-08-01T00:35:08;1.80;;;1.40;;
11988;SDS011;6054;50.966;7.094;2022-08-01T00:37:35;2.40;;;1.83;;
11988;SDS011;6054;50.966;7.094;2022-08-01T00:40:02;2.15;;;1.70;;
11988;SDS011;6054;50.966;7.094;2022-08-01T00:42:30;1.65;;;1.58;;
11988;SDS011;6054;50.966;7.094;2022-08-01T00:44:56;1.48;;;1.40;;
11988;SDS011;6054;50.966;7.094;2022-08-01T00:47:23;2.22;;;1.50;;
11988;SDS011;6054;50.966;7.094;2022-08-01T00:49:51;2.33;;;1.70;;
11988;SDS011;6054;50.966;7.094;2022-08-01T00:52:18;1.50;;;1.40;;
11988;SDS011;6054;50.966;7.094;2022-08-01T00:54:45;1.80;;;1.67;;
11988;SDS011;6054;50.966;7.094;2022-08-01T00:57:12;3.88;;;1.52;;
11988;SDS011;6054;50.966;7.094;2022-08-01T00:59:39;1.55;;;1.40;;
11988;SDS011;6054;50.966;7.094;2022-08-01T01:02:07;3.05;;;1.65;;
11988;SDS011;6054;50.966;7.094;2022-08-01T01:04:34;3.10;;;1.88;;
11988;SDS011;6054;50.966;7.094;2022-08-01T01:07:05;2.58;;;1.98;;
11988;SDS011;6054;50.966;7.094;2022-08-01T01:09:38;2.80;;;1.95;;
11988;SDS011;6054;50.966;7.094;2022-08-01T01:12:12;2.40;;;1.77;;
11988;SDS011;6054;50.966;7.094;2022-08-01T01:14:47;3.85;;;2.10;;
11988;SDS011;6054;50.966;7.094;2022-08-01T01:17:19;2.17;;;1.70;;
11988;SDS011;6054;50.966;7.094;2022-08-01T01:19:54;1.58;;;1.48;;
11988;SDS011;6054;50.966;7.094;2022-08-01T01:22:25;2.95;;;1.60;;
11988;SDS011;6054;50.966;7.094;2022-08-01T01:25:04;3.72;;;1.70;;
11988;SDS011;6054;50.966;7.094;2022-08-01T01:27:45;2.00;;;1.90;;
11988;SDS011;6054;50.966;7.094;2022-08-01T01:30:18;2.15;;;1.80;;
11988;SDS011;6054;50.966;7.094;2022-08-01T01:32:48;1.63;;;1.55;;
11988;SDS011;6054;50.966;7.094;2022-08-01T01:35:17;1.83;;;1.73;;
11988;SDS011;6054;50.966;7.094;2022-08-01T01:37:48;1.90;;;1.80;;
11988;SDS011;6054;50.966;7.094;2022-08-01T01:40:19;3.17;;;2.03;;
11988;SDS011;6054;50.966;7.094;2022-08-01T01:42:47;2.20;;;2.05;;
11988;SDS011;6054;50.966;7.094;2022-08-01T01:45:16;3.42;;;2.03;;
11988;SDS011;6054;50.966;7.094;2022-08-01T01:47:47;3.55;;;2.40;;
11988;SDS011;6054;50.966;7.094;2022-08-01T01:50:15;4.15;;;2.40;;
11988;SDS011;6054;50.966;7.094;2022-08-01T01:52:43;2.10;;;2.00;;
11988;SDS011;6054;50.966;7.094;2022-08-01T01:55:11;2.40;;;2.20;;
11988;SDS011;6054;50.966;7.094;2022-08-01T01:57:40;2.72;;;2.47;;
11988;SDS011;6054;50.966;7.094;2022-08-01T02:00:10;2.80;;;2.60;;
11988;SDS011;6054;50.966;7.094;2022-08-01T02:02:39;4.03;;;2.60;;
11988;SDS011;6054;50.966;7.094;2022-08-01T02:05:08;2.72;;;2.40;;
11988;SDS011;6054;50.966;7.094;2022-08-01T02:07:36;7.07;;;2.30;;
11988;SDS011;6054;50.966;7.094;2022-08-01T02:10:05;5.80;;;2.95;;
11988;SDS011;6054;50.966;7.094;2022-08-01T02:12:35;3.88;;;2.60;;
11988;SDS011;6054;50.966;7.094;2022-08-01T02:15:04;4.72;;;2.80;;
11988;SDS011;6054;50.966;7.094;2022-08-01T02:17:34;5.35;;;2.70;;
11988;SDS011;6054;50.966;7.094;2022-08-01T02:20:09;3.45;;;2.30;;
11988;SDS011;6054;50.966;7.094;2022-08-01T02:22:37;2.80;;;2.50;;
11988;SDS011;6054;50.966;7.094;2022-08-01T02:25:10;2.78;;;2.40;;
11988;SDS011;6054;50.966;7.094;2022-08-01T02:27:43;2.67;;;2.47;;
11988;SDS011;6054;50.966;7.094;2022-08-01T02:30:15;2.33;;;2.20;;
11988;SDS011;6054;50.966;7.094;2022-08-01T02:32:44;5.30;;;2.97;;
11988;SDS011;6054;50.966;7.094;2022-08-01T02:35:18;3.38;;;2.72;;
11988;SDS011;6054;50.966;7.094;2022-08-01T02:37:48;3.05;;;2.78;;
11988;SDS011;6054;50.966;7.094;2022-08-01T02:40:15;3.15;;;2.90;;
11988;SDS011;6054;50.966;7.094;2022-08-01T02:42:44;5.07;;;2.47;;
11988;SDS011;6054;50.966;7.094;2022-08-01T02:45:16;4.35;;;2.58;;
11988;SDS011;6054;50.966;7.094;2022-08-01T02:47:44;4.10;;;2.58;;
11988;SDS011;6054;50.966;7.094;2022-08-01T02:50:15;3.88;;;2.97;;
11988;SDS011;6054;50.966;7.094;2022-08-01T02:52:44;4.05;;;2.92;;
11988;SDS011;6054;50.966;7.094;2022-08-01T02:55:14;3.33;;;2.65;;
11988;SDS011;6054;50.966;7.094;2022-08-01T02:57:42;3.15;;;2.47;;
11988;SDS011;6054;50.966;7.094;2022-08-01T03:00:10;4.70;;;3.30;;
11988;SDS011;6054;50.966;7.094;2022-08-01T03:02:37;3.10;;;2.65;;
11988;SDS011;6054;50.966;7.094;2022-08-01T03:05:06;2.75;;;2.55;;
11988;SDS011;6054;50.966;7.094;2022-08-01T03:07:35;3.25;;;2.95;;
11988;SDS011;6054;50.966;7.094;2022-08-01T03:10:04;3.92;;;2.63;;
11988;SDS011;6054;50.966;7.094;2022-08-01T03:12:33;4.85;;;3.05;;
11988;SDS011;6054;50.966;7.094;2022-08-01T03:15:00;3.28;;;3.00;;
11988;SDS011;6054;50.966;7.094;2022-08-01T03:17:30;4.45;;;3.47;;
11988;SDS011;6054;50.966;7.094;2022-08-01T03:19:58;4.38;;;3.30;;
11988;SDS011;6054;50.966;7.094;2022-08-01T03:22:28;3.90;;;3.17;;
11988;SDS011;6054;50.966;7.094;2022-08-01T03:24:58;6.38;;;3.63;;
11988;SDS011;6054;50.966;7.094;2022-08-01T03:27:26;3.38;;;3.08;;
11988;SDS011;6054;50.966;7.094;2022-08-01T03:29:54;4.22;;;3.50;;
11988;SDS011;6054;50.966;7.094;2022-08-01T03:32:22;3.83;;;3.35;;
11988;SDS011;6054;50.966;7.094;2022-08-01T03:34:49;4.80;;;3.30;;
11988;SDS011;6054;50.966;7.094;2022-08-01T03:37:27;3.90;;;3.50;;
11988;SDS011;6054;50.966;7.094;2022-08-01T03:40:00;4.40;;;3.17;;
11988;SDS011;6054;50.966;7.094;2022-08-01T03:42:31;6.38;;;3.72;;
11988;SDS011;6054;50.966;7.094;2022-08-01T03:45:01;5.38;;;3.63;;
11988;SDS011;6054;50.966;7.094;2022-08-01T03:47:31;4.65;;;3.45;;
11988;SDS011;6054;50.966;7.094;2022-08-01T03:50:00;5.05;;;3.30;;
11988;SDS011;6054;50.966;7.094;2022-08-01T03:52:29;3.83;;;3.45;;
11988;SDS011;6054;50.966;7.094;2022-08-01T03:54:59;4.07;;;3.40;;
11988;SDS011;6054;50.966;7.094;2022-08-01T03:57:28;4.40;;;3.28;;
11988;SDS011;6054;50.966;7.094;2022-08-01T03:59:56;4.13;;;3.50;;
11988;SDS011;6054;50.966;7.094;2022-08-01T04:02:23;5.10;;;3.70;;
11988;SDS011;6054;50.966;7.094;2022-08-01T04:04:52;5.55;;;3.55;;
11988;SDS011;6054;50.966;7.094;2022-08-01T04:07:22;4.72;;;3.67;;
11988;SDS011;6054;50.966;7.094;2022-08-01T04:09:51;4.72;;;3.60;;
11988;SDS011;6054;50.966;7.094;2022-08-01T04:12:20;6.68;;;3.58;;
11988;SDS011;6054;50.966;7.094;2022-08-01T04:14:47;4.55;;;3.83;;
11988;SDS011;6054;50.966;7.094;2022-08-01T04:17:14;4.60;;;3.58;;
11988;SDS011;6054;50.966;7.094;2022-08-01T04:19:41;5.03;;;3.58;;
11988;SDS011;6054;50.966;7.094;2022-08-01T04:22:08;4.25;;;3.78;;
11988;SDS011;6054;50.966;7.094;2022-08-01T04:24:36;4.40;;;4.00;;
11988;SDS011;6054;50.966;7.094;2022-08-01T04:27:06;7.55;;;3.80;;
11988;SDS011;6054;50.966;7.094;2022-08-01T04:29:38;6.68;;;4.10;;
11988;SDS011;6054;50.966;7.094;2022-08-01T04:32:07;5.68;;;4.15;;
11988;SDS011;6054;50.966;7.094;2022-08-01T04:34:37;6.63;;;4.07;;
11988;SDS011;6054;50.966;7.094;2022-08-01T04:37:07;5.30;;;4.18;;
11988;SDS011;6054;50.966;7.094;2022-08-01T04:39:35;3.83;;;3.50;;
11988;SDS011;6054;50.966;7.094;2022-08-01T04:42:05;3.88;;;3.50;;
11988;SDS011;6054;50.966;7.094;2022-08-01T04:44:33;4.78;;;3.90;;
11988;SDS011;6054;50.966;7.094;2022-08-01T04:47:02;6.75;;;3.70;;
11988;SDS011;6054;50.966;7.094;2022-08-01T04:49:30;5.75;;;4.30;;
11988;SDS011;6054;50.966;7.094;2022-08-01T04:51:57;4.32;;;4.00;;
11988;SDS011;6054;50.966;7.094;2022-08-01T04:54:25;5.93;;;4.00;;
11988;SDS011;6054;50.966;7.094;2022-08-01T04:56:52;6.50;;;4.30;;
11988;SDS011;6054;50.966;7.094;2022-08-01T04:59:20;5.00;;;4.50;;
11988;SDS011;6054;50.966;7.094;2022-08-01T05:02:07;4.72;;;4.30;;
11988;SDS011;6054;50.966;7.094;2022-08-01T05:04:35;6.72;;;5.05;;
11988;SDS011;6054;50.966;7.094;2022-08-01T05:07:02;6.60;;;5.15;;
11988;SDS011;6054;50.966;7.094;2022-08-01T05:09:29;7.43;;;5.40;;
11988;SDS011;6054;50.966;7.094;2022-08-01T05:11:56;7.53;;;5.57;;
11988;SDS011;6054;50.966;7.094;2022-08-01T05:14:24;7.65;;;5.65;;
11988;SDS011;6054;50.966;7.094;2022-08-01T05:16:51;5.55;;;5.05;;
11988;SDS011;6054;50.966;7.094;2022-08-01T05:19:19;7.40;;;5.63;;
11988;SDS011;6054;50.966;7.094;2022-08-01T05:21:46;7.85;;;6.10;;
11988;SDS011;6054;50.966;7.094;2022-08-01T05:24:13;8.13;;;5.75;;
11988;SDS011;6054;50.966;7.094;2022-08-01T05:26:40;8.00;;;4.95;;
11988;SDS011;6054;50.966;7.094;2022-08-01T05:29:07;6.90;;;6.20;;
11988;SDS011;6054;50.966;7.094;2022-08-01T05:31:34;8.68;;;6.20;;
11988;SDS011;6054;50.966;7.094;2022-08-01T05:34:01;7.75;;;6.35;;
11988;SDS011;6054;50.966;7.094;2022-08-01T05:36:29;6.78;;;6.18;;
11988;SDS011;6054;50.966;7.094;2022-08-01T05:38:56;7.25;;;5.85;;
11988;SDS011;6054;50.966;7.094;2022-08-01T05:41:22;9.82;;;6.20;;
11988;SDS011;6054;50.966;7.094;2022-08-01T05:43:49;8.82;;;6.15;;
11988;SDS011;6054;50.966;7.094;2022-08-01T05:46:16;9.20;;;6.50;;
11988;SDS011;6054;50.966;7.094;2022-08-01T05:48:43;7.70;;;6.40;;
11988;SDS011;6054;50.966;7.094;2022-08-01T05:51:09;10.30;;;6.93;;
11988;SDS011;6054;50.966;7.094;2022-08-01T05:53:38;8.25;;;6.93;;
11988;SDS011;6054;50.966;7.094;2022-08-01T05:56:04;8.95;;;7.65;;
11988;SDS011;6054;50.966;7.094;2022-08-01T05:58:31;10.52;;;7.60;;
11988;SDS011;6054;50.966;7.094;2022-08-01T06:00:58;9.75;;;7.88;;
11988;SDS011;6054;50.966;7.094;2022-08-01T06:03:25;9.13;;;7.20;;
11988;SDS011;6054;50.966;7.094;2022-08-01T06:05:56;11.95;;;8.60;;
11988;SDS011;6054;50.966;7.094;2022-08-01T06:08:23;10.80;;;8.50;;
11988;SDS011;6054;50.966;7.094;2022-08-01T06:10:51;10.90;;;8.65;;
11988;SDS011;6054;50.966;7.094;2022-08-01T06:13:17;10.38;;;9.27;;
11988;SDS011;6054;50.966;7.094;2022-08-01T06:15:45;12.55;;;9.10;;
11988;SDS011;6054;50.966;7.094;2022-08-01T06:18:12;12.55;;;9.18;;
11988;SDS011;6054;50.966;7.094;2022-08-01T06:20:39;13.95;;;10.45;;
11988;SDS011;6054;50.966;7.094;2022-08-01T06:23:06;11.48;;;9.68;;
11988;SDS011;6054;50.966;7.094;2022-08-01T06:25:33;11.18;;;9.43;;
11988;SDS011;6054;50.966;7.094;2022-08-01T06:28:01;13.50;;;9.52;;
11988;SDS011;6054;50.966;7.094;2022-08-01T06:30:29;11.15;;;9.45;;
11988;SDS011;6054;50.966;7.094;2022-08-01T06:32:55;12.13;;;10.27;;
11988;SDS011;6054;50.966;7.094;2022-08-01T06:35:23;12.05;;;9.60;;
11988;SDS011;6054;50.966;7.094;2022-08-01T06:37:50;13.98;;;9.27;;
11988;SDS011;6054;50.966;7.094;2022-08-01T06:40:17;12.88;;;9.73;;
11988;SDS011;6054;50.966;7.094;2022-08-01T06:42:44;12.05;;;8.98;;
11988;SDS011;6054;50.966;7.094;2022-08-01T06:45:13;12.18;;;10.23;;
11988;SDS011;6054;50.966;7.094;2022-08-01T06:47:41;10.77;;;9.68;;
11988;SDS011;6054;50.966;7.094;2022-08-01T06:50:09;11.90;;;10.13;;
11988;SDS011;6054;50.966;7.094;2022-08-01T06:52:36;15.55;;;10.40;;
11988;SDS011;6054;50.966;7.094;2022-08-01T06:55:04;12.32;;;10.10;;
11988;SDS011;6054;50.966;7.094;2022-08-01T06:57:31;12.55;;;10.20;;
11988;SDS011;6054;50.966;7.094;2022-08-01T07:00:00;13.25;;;10.52;;
11988;SDS011;6054;50.966;7.094;2022-08-01T07:02:31;11.82;;;10.63;;
11988;SDS011;6054;50.966;7.094;2022-08-01T07:04:58;12.63;;;8.70;;
11988;SDS011;6054;50.966;7.094;2022-08-01T07:07:25;11.15;;;9.23;;
11988;SDS011;6054;50.966;7.094;2022-08-01T07:09:52;12.63;;;10.65;;
11988;SDS011;6054;50.966;7.094;2022-08-01T07:12:19;11.25;;;9.25;;
11988;SDS011;6054;50.966;7.094;2022-08-01T07:14:46;13.25;;;9.18;;
11988;SDS011;6054;50.966;7.094;2022-08-01T07:17:13;10.63;;;9.38;;
11988;SDS011;6054;50.966;7.094;2022-08-01T07:19:41;13.27;;;9.32;;
11988;SDS011;6054;50.966;7.094;2022-08-01T07:22:08;10.55;;;8.80;;
11988;SDS011;6054;50.966;7.094;2022-08-01T07:24:34;10.20;;;8.43;;
11988;SDS011;6054;50.966;7.094;2022-08-01T07:27:01;10.27;;;9.18;;
11988;SDS011;6054;50.966;7.094;2022-08-01T07:29:28;11.43;;;8.93;;
11988;SDS011;6054;50.966;7.094;2022-08-01T07:31:55;9.20;;;8.20;;
11988;SDS011;6054;50.966;7.094;2022-08-01T07:34:23;9.80;;;8.80;;
11988;SDS011;6054;50.966;7.094;2022-08-01T07:36:52;8.75;;;7.95;;
11988;SDS011;6054;50.966;7.094;2022-08-01T07:39:19;9.30;;;8.38;;
11988;SDS011;6054;50.966;7.094;2022-08-01T07:41:46;8.30;;;7.50;;
11988;SDS011;6054;50.966;7.094;2022-08-01T07:44:13;8.57;;;7.68;;
11988;SDS011;6054;50.966;7.094;2022-08-01T07:46:40;9.70;;;7.88;;
11988;SDS011;6054;50.966;7.094;2022-08-01T07:49:07;7.60;;;6.97;;
11988;SDS011;6054;50.966;7.094;2022-08-01T07:51:34;8.77;;;8.02;;
11988;SDS011;6054;50.966;7.094;2022-08-01T07:54:02;8.13;;;7.35;;
11988;SDS011;6054;50.966;7.094;2022-08-01T07:56:29;8.77;;;7.15;;
11988;SDS011;6054;50.966;7.094;2022-08-01T07:58:56;8.25;;;7.45;;
11988;SDS011;6054;50.966;7.094;2022-08-01T08:01:22;8.40;;;7.55;;
11988;SDS011;6054;50.966;7.094;2022-08-01T08:03:49;8.50;;;7.32;;
11988;SDS011;6054;50.966;7.094;2022-08-01T08:06:16;8.63;;;7.10;;
11988;SDS011;6054;50.966;7.094;2022-08-01T08:08:43;7.82;;;7.03;;
11988;SDS011;6054;50.966;7.094;2022-08-01T08:11:11;8.48;;;7.22;;
11988;SDS011;6054;50.966;7.094;2022-08-01T08:13:37;7.70;;;6.88;;
11988;SDS011;6054;50.966;7.094;2022-08-01T08:16:04;7.40;;;6.80;;
11988;SDS011;6054;50.966;7.094;2022-08-01T08:18:31;7.38;;;6.68;;
11988;SDS011;6054;50.966;7.094;2022-08-01T08:20:58;7.95;;;6.85;;
11988;SDS011;6054;50.966;7.094;2022-08-01T08:23:24;7.47;;;6.78;;
11988;SDS011;6054;50.966;7.094;2022-08-01T08:26:10;8.85;;;7.40;;
11988;SDS011;6054;50.966;7.094;2022-08-01T08:28:37;7.75;;;5.93;;
11988;SDS011;6054;50.966;7.094;2022-08-01T08:31:04;10.27;;;6.97;;
11988;SDS011;6054;50.966;7.094;2022-08-01T08:33:31;8.07;;;7.28;;
11988;SDS011;6054;50.966;7.094;2022-08-01T08:35:58;8.70;;;6.70;;
11988;SDS011;6054;50.966;7.094;2022-08-01T08:38:24;8.35;;;7.53;;
11988;SDS011;6054;50.966;7.094;2022-08-01T08:40:52;6.75;;;6.10;;
11988;SDS011;6054;50.966;7.094;2022-08-01T08:43:20;7.18;;;5.90;;
11988;SDS011;6054;50.966;7.094;2022-08-01T08:45:49;6.10;;;5.53;;
11988;SDS011;6054;50.966;7.094;2022-08-01T08:48:16;5.90;;;5.40;;
11988;SDS011;6054;50.966;7.094;2022-08-01T08:50:43;5.78;;;5.28;;
11988;SDS011;6054;50.966;7.094;2022-08-01T08:53:12;6.30;;;5.60;;
11988;SDS011;6054;50.966;7.094;2022-08-01T08:55:41;7.75;;;5.50;;
11988;SDS011;6054;50.966;7.094;2022-08-01T08:58:09;5.10;;;4.70;;
11988;SDS011;6054;50.966;7.094;2022-08-01T09:00:39;6.07;;;5.32;;
11988;SDS011;6054;50.966;7.094;2022-08-01T09:03:06;5.32;;;4.88;;
11988;SDS011;6054;50.966;7.094;2022-08-01T09:05:33;5.55;;;5.05;;
11988;SDS011;6054;50.966;7.094;2022-08-01T09:08:00;4.70;;;4.30;;
11988;SDS011;6054;50.966;7.094;2022-08-01T09:10:27;4.85;;;3.95;;
11988;SDS011;6054;50.966;7.094;2022-08-01T09:13:03;5.20;;;4.05;;
11988;SDS011;6054;50.966;7.094;2022-08-01T09:15:43;9.20;;;5.25;;
11988;SDS011;6054;50.966;7.094;2022-08-01T09:18:28;4.78;;;4.32;;
11988;SDS011;6054;50.966;7.094;2022-08-01T09:21:10;4.40;;;4.00;;
11988;SDS011;6054;50.966;7.094;2022-08-01T09:23:40;3.75;;;3.45;;
11988;SDS011;6054;50.966;7.094;2022-08-01T09:26:10;4.93;;;3.92;;
11988;SDS011;6054;50.966;7.094;2022-08-01T09:28:37;3.78;;;3.55;;
11988;SDS011;6054;50.966;7.094;2022-08-01T09:31:07;4.53;;;4.13;;
11988;SDS011;6054;50.966;7.094;2022-08-01T09:33:48;4.78;;;3.67;;
11988;SDS011;6054;50.966;7.094;2022-08-01T09:36:19;4.50;;;4.10;;
11988;SDS011;6054;50.966;7.094;2022-08-01T09:38:48;4.40;;;4.00;;
11988;SDS011;6054;50.966;7.094;2022-08-01T09:41:15;6.97;;;5.03;;
11988;SDS011;6054;50.966;7.094;2022-08-01T09:43:47;4.53;;;4.13;;
11988;SDS011;6054;50.966;7.094;2022-08-01T09:46:17;6.93;;;4.13;;
11988;SDS011;6054;50.966;7.094;2022-08-01T09:48:56;8.27;;;4.40;;
11988;SDS011;6054;50.966;7.094;2022-08-01T09:51:29;4.22;;;3.80;;
11988;SDS011;6054;50.966;7.094;2022-08-01T09:53:57;4.07;;;3.70;;
11988;SDS011;6054;50.966;7.094;2022-08-01T09:56:25;4.07;;;3.75;;
11988;SDS011;6054;50.966;7.094;2022-08-01T09:58:53;5.07;;;4.18;;
11988;SDS011;6054;50.966;7.094;2022-08-01T10:01:23;3.65;;;3.35;;
11988;SDS011;6054;50.966;7.094;2022-08-01T10:04:06;4.40;;;3.55;;
11988;SDS011;6054;50.966;7.094;2022-08-01T10:06:35;4.30;;;3.80;;
11988;SDS011;6054;50.966;7.094;2022-08-01T10:09:03;4.15;;;3.47;;
11988;SDS011;6054;50.966;7.094;2022-08-01T10:11:30;5.70;;;3.85;;
11988;SDS011;6054;50.966;7.094;2022-08-01T10:13:59;4.35;;;3.90;;
11988;SDS011;6054;50.966;7.094;2022-08-01T10:16:28;4.05;;;3.65;;
11988;SDS011;6054;50.966;7.094;2022-08-01T10:18:56;3.97;;;3.30;;
11988;SDS011;6054;50.966;7.094;2022-08-01T10:21:23;3.97;;;3.28;;
11988;SDS011;6054;50.966;7.094;2022-08-01T10:23:53;3.60;;;3.38;;
11988;SDS011;6054;50.966;7.094;2022-08-01T10:26:22;4.00;;;3.55;;
11988;SDS011;6054;50.966;7.094;2022-08-01T10:28:52;3.72;;;3.42;;
11988;SDS011;6054;50.966;7.094;2022-08-01T10:31:22;3.85;;;3.50;;
11988;SDS011;6054;50.966;7.094;2022-08-01T10:33:55;4.55;;;3.80;;
11988;SDS011;6054;50.966;7.094;2022-08-01T10:36:26;4.00;;;3.60;;
11988;SDS011;6054;50.966;7.094;2022-08-01T10:38:54;3.53;;;3.20;;
11988;SDS011;6054;50.966;7.094;2022-08-01T10:41:21;4.15;;;3.50;;
11988;SDS011;6054;50.966;7.094;2022-08-01T10:43:51;4.35;;;3.13;;
11988;SDS011;6054;50.966;7.094;2022-08-01T10:46:18;3.97;;;3.55;;
11988;SDS011;6054;50.966;7.094;2022-08-01T10:48:47;3.40;;;3.10;;
11988;SDS011;6054;50.966;7.094;2022-08-01T10:51:20;5.15;;;3.33;;
11988;SDS011;6054;50.966;7.094;2022-08-01T10:53:47;4.95;;;3.85;;
11988;SDS011;6054;50.966;7.094;2022-08-01T10:56:16;5.20;;;3.50;;
11988;SDS011;6054;50.966;7.094;2022-08-01T10:58:46;3.53;;;3.22;;
11988;SDS011;6054;50.966;7.094;2022-08-01T11:01:17;3.75;;;3.35;;
11988;SDS011;6054;50.966;7.094;2022-08-01T11:09:40;3.60;;;3.30;;
11988;SDS011;6054;50.966;7.094;2022-08-01T11:12:09;4.40;;;3.50;;
11988;SDS011;6054;50.966;7.094;2022-08-01T11:17:49;3.22;;;3.03;;
11988;SDS011;6054;50.966;7.094;2022-08-01T11:20:17;2.78;;;2.58;;
11988;SDS011;6054;50.966;7.094;2022-08-01T11:31:38;2.50;;;2.25;;
11988;SDS011;6054;50.966;7.094;2022-08-01T11:34:05;2.80;;;2.60;;
11988;SDS011;6054;50.966;7.094;2022-08-01T11:36:32;3.00;;;2.70;;
11988;SDS011;6054;50.966;7.094;2022-08-01T11:39:16;2.50;;;2.40;;
11988;SDS011;6054;50.966;7.094;2022-08-01T11:41:46;2.88;;;2.60;;
11988;SDS011;6054;50.966;7.094;2022-08-01T11:44:15;3.20;;;3.00;;
11988;SDS011;6054;50.966;7.094;2022-08-01T11:46:51;2.70;;;2.50;;
11988;SDS011;6054;50.966;7.094;2022-08-01T11:49:24;3.08;;;2.88;;
11988;SDS011;6054;50.966;7.094;2022-08-01T11:51:56;2.88;;;2.70;;
11988;SDS011;6054;50.966;7.094;2022-08-01T11:54:29;2.88;;;2.67;;
11988;SDS011;6054;50.966;7.094;2022-08-01T11:56:58;2.83;;;2.47;;
11988;SDS011;6054;50.966;7.094;2022-08-01T11:59:26;5.63;;;2.95;;
11988;SDS011;6054;50.966;7.094;2022-08-01T12:01:53;3.45;;;3.15;;
11988;SDS011;6054;50.966;7.094;2022-08-01T12:04:20;3.20;;;2.90;;
11988;SDS011;6054;50.966;7.094;2022-08-01T12:06:47;3.10;;;2.67;;
11988;SDS011;6054;50.966;7.094;2022-08-01T12:09:14;4.97;;;2.58;;
11988;SDS011;6054;50.966;7.094;2022-08-01T12:11:43;2.67;;;2.58;;
11988;SDS011;6054;50.966;7.094;2022-08-01T12:14:15;3.20;;;2.67;;
11988;SDS011;6054;50.966;7.094;2022-08-01T12:16:47;2.97;;;2.53;;
11988;SDS011;6054;50.966;7.094;2022-08-01T12:19:19;3.25;;;2.55;;
11988;SDS011;6054;50.966;7.094;2022-08-01T12:22:07;3.22;;;2.45;;
11988;SDS011;6054;50.966;7.094;2022-08-01T12:24:35;2.78;;;2.55;;
11988;SDS011;6054;50.966;7.094;2022-08-01T12:27:04;2.70;;;2.50;;
11988;SDS011;6054;50.966;7.094;2022-08-01T12:29:33;3.30;;;2.58;;
11988;SDS011;6054;50.966;7.094;2022-08-01T12:32:01;2.63;;;2.42;;
11988;SDS011;6054;50.966;7.094;2022-08-01T12:34:28;2.75;;;2.28;;
11988;SDS011;6054;50.966;7.094;2022-08-01T12:36:55;2.35;;;2.22;;
11988;SDS011;6054;50.966;7.094;2022-08-01T12:39:29;2.30;;;2.10;;
11988;SDS011;6054;50.966;7.094;2022-08-01T12:41:58;2.30;;;2.10;;
11988;SDS011;6054;50.966;7.094;2022-08-01T12:44:27;2.30;;;2.10;;
11988;SDS011;6054;50.966;7.094;2022-08-01T12:46:56;3.38;;;2.50;;
11988;SDS011;6054;50.966;7.094;2022-08-01T12:49:23;2.50;;;2.30;;
11988;SDS011;6054;50.966;7.094;2022-08-01T12:51:50;2.65;;;2.45;;
11988;SDS011;6054;50.966;7.094;2022-08-01T12:54:17;2.25;;;2.15;;
11988;SDS011;6054;50.966;7.094;2022-08-01T12:56:44;2.33;;;2.08;;
11988;SDS011;6054;50.966;7.094;2022-08-01T12:59:20;2.20;;;2.00;;
11988;SDS011;6054;50.966;7.094;2022-08-01T13:01:51;2.65;;;2.20;;
11988;SDS011;6054;50.966;7.094;2022-08-01T13:04:18;3.50;;;2.03;;
11988;SDS011;6054;50.966;7.094;2022-08-01T13:06:45;4.78;;;1.83;;
11988;SDS011;6054;50.966;7.094;2022-08-01T13:09:13;1.95;;;1.83;;
11988;SDS011;6054;50.966;7.094;2022-08-01T13:11:40;2.30;;;1.70;;
11988;SDS011;6054;50.966;7.094;2022-08-01T13:14:08;1.90;;;1.65;;
11988;SDS011;6054;50.966;7.094;2022-08-01T13:16:45;1.80;;;1.70;;
11988;SDS011;6054;50.966;7.094;2022-08-01T13:19:16;1.38;;;1.38;;
11988;SDS011;6054;50.966;7.094;2022-08-01T13:21:53;3.33;;;1.60;;
11988;SDS011;6054;50.966;7.094;2022-08-01T13:24:25;1.60;;;1.55;;
11988;SDS011;6054;50.966;7.094;2022-08-01T13:26:55;1.52;;;1.50;;
11988;SDS011;6054;50.966;7.094;2022-08-01T13:29:31;1.60;;;1.50;;
11988;SDS011;6054;50.966;7.094;2022-08-01T13:31:59;2.03;;;1.60;;
11988;SDS011;6054;50.966;7.094;2022-08-01T13:34:31;1.70;;;1.45;;
11988;SDS011;6054;50.966;7.094;2022-08-01T13:36:59;1.60;;;1.50;;
11988;SDS011;6054;50.966;7.094;2022-08-01T13:39:26;4.78;;;2.03;;
11988;SDS011;6054;50.966;7.094;2022-08-01T13:42:14;1.70;;;1.40;;
11988;SDS011;6054;50.966;7.094;2022-08-01T13:44:44;1.17;;;1.10;;
11988;SDS011;6054;50.966;7.094;2022-08-01T13:47:11;1.30;;;1.20;;
11988;SDS011;6054;50.966;7.094;2022-08-01T13:49:39;1.30;;;1.30;;
11988;SDS011;6054;50.966;7.094;2022-08-01T13:52:06;1.38;;;1.30;;
11988;SDS011;6054;50.966;7.094;2022-08-01T13:54:33;1.00;;;1.00;;
11988;SDS011;6054;50.966;7.094;2022-08-01T13:57:01;2.13;;;1.00;;
11988;SDS011;6054;50.966;7.094;2022-08-01T13:59:28;1.77;;;1.10;;
11988;SDS011;6054;50.966;7.094;2022-08-01T14:01:54;1.20;;;1.20;;
11988;SDS011;6054;50.966;7.094;2022-08-01T14:04:21;1.05;;;1.05;;
11988;SDS011;6054;50.966;7.094;2022-08-01T14:06:49;2.58;;;1.20;;
11988;SDS011;6054;50.966;7.094;2022-08-01T14:09:16;1.10;;;1.02;;
11988;SDS011;6054;50.966;7.094;2022-08-01T14:11:44;2.35;;;1.10;;
11988;SDS011;6054;50.966;7.094;2022-08-01T14:14:11;1.20;;;1.20;;
11988;SDS011;6054;50.966;7.094;2022-08-01T14:16:39;2.17;;;1.40;;
11988;SDS011;6054;50.966;7.094;2022-08-01T14:19:06;1.33;;;1.25;;
11988;SDS011;6054;50.966;7.094;2022-08-01T14:21:33;1.58;;;1.20;;
11988;SDS011;6054;50.966;7.094;2022-08-01T14:24:01;2.08;;;1.40;;
11988;SDS011;6054;50.966;7.094;2022-08-01T14:26:28;2.13;;;1.15;;
11988;SDS011;6054;50.966;7.094;2022-08-01T14:28:54;1.45;;;1.30;;
11988;SDS011;6054;50.966;7.094;2022-08-01T14:31:21;1.10;;;1.10;;
11988;SDS011;6054;50.966;7.094;2022-08-01T14:33:48;1.02;;;1.02;;
11988;SDS011;6054;50.966;7.094;2022-08-01T14:36:15;1.20;;;1.10;;
11988;SDS011;6054;50.966;7.094;2022-08-01T14:38:42;1.30;;;1.20;;
11988;SDS011;6054;50.966;7.094;2022-08-01T14:41:10;5.55;;;1.13;;
11988;SDS011;6054;50.966;7.094;2022-08-01T14:43:37;1.08;;;1.08;;
11988;SDS011;6054;50.966;7.094;2022-08-01T14:46:04;0.90;;;0.90;;
11988;SDS011;6054;50.966;7.094;2022-08-01T14:48:30;1.25;;;1.00;;
11988;SDS011;6054;50.966;7.094;2022-08-01T14:50:57;2.58;;;1.33;;
11988;SDS011;6054;50.966;7.094;2022-08-01T14:53:27;0.90;;;0.90;;
11988;SDS011;6054;50.966;7.094;2022-08-01T14:55:54;2.35;;;1.10;;
11988;SDS011;6054;50.966;7.094;2022-08-01T14:58:22;1.20;;;1.20;;
11988;SDS011;6054;50.966;7.094;2022-08-01T15:00:49;1.00;;;1.00;;
11988;SDS011;6054;50.966;7.094;2022-08-01T15:03:22;2.85;;;1.25;;
11988;SDS011;6054;50.966;7.094;2022-08-01T15:05:48;1.70;;;1.60;;
11988;SDS011;6054;50.966;7.094;2022-08-01T15:08:17;1.13;;;1.13;;
11988;SDS011;6054;50.966;7.094;2022-08-01T15:10:44;1.90;;;1.40;;
11988;SDS011;6054;50.966;7.094;2022-08-01T15:13:11;2.15;;;1.60;;
11988;SDS011;6054;50.966;7.094;2022-08-01T15:15:39;1.30;;;1.30;;
11988;SDS011;6054;50.966;7.094;2022-08-01T15:18:06;1.40;;;1.30;;
11988;SDS011;6054;50.966;7.094;2022-08-01T15:20:33;1.95;;;1.35;;
11988;SDS011;6054;50.966;7.094;2022-08-01T15:23:00;1.27;;;1.27;;
11988;SDS011;6054;50.966;7.094;2022-08-01T15:25:27;3.28;;;1.40;;
11988;SDS011;6054;50.966;7.094;2022-08-01T15:28:07;1.50;;;1.40;;